This is the latest recevied weather packets stored in our database for station/object 5B4APJ-13. If no packets are shown the sender has not sent any weather packets the latest 10 day(s).
| Time | Temp. | Humidity | Pressure | Rain* | Wind** | Luminosity | Snow |
|---|---|---|---|---|---|---|---|
| 1777520828 | 15° C | 79% | 1015.6 hPa | 0 mm | 0 m/s | 59 W/m² | - |
| 1777520528 | 14.44° C | 81% | 1015.8 hPa | 0 mm | 0 m/s | 46 W/m² | - |
| 1777520228 | 13.89° C | 81% | 1015.6 hPa | 0 mm | 0 m/s | 38 W/m² | - |
| 1777519928 | 13.89° C | 81% | 1015.7 hPa | 0 mm | 0 m/s | 31 W/m² | - |
| 1777519628 | 13.33° C | 82% | 1015.7 hPa | 0 mm | 0 m/s | 26 W/m² | - |
| 1777519328 | 13.89° C | 81% | 1015.6 hPa | 0 mm | 0.45 m/s, 108° | 21 W/m² | - |
| 1777519028 | 14.44° C | 80% | 1015.3 hPa | 0 mm | 0 m/s | 17 W/m² | - |
| 1777518728 | 14.44° C | 81% | 1015.2 hPa | 0 mm | 1.34 m/s, 244° | 13 W/m² | - |
| 1777518428 | 13.89° C | 81% | 1015.3 hPa | 0 mm | 1.79 m/s, 239° | 9 W/m² | - |
| 1777518129 | 13.33° C | 82% | 1015.4 hPa | 0 mm | 2.24 m/s, 244° | 6 W/m² | - |
| 1777517828 | 13.33° C | 82% | 1015.4 hPa | 0 mm | 1.34 m/s, 247° | 4 W/m² | - |
| 1777517528 | 13.33° C | 81% | 1015.4 hPa | 0 mm | 1.34 m/s, 249° | 2 W/m² | - |
| 1777517227 | 13.89° C | 81% | 1015.3 hPa | 0 mm | 1.79 m/s, 249° | 1 W/m² | - |
| 1777516928 | 13.33° C | 82% | 1015 hPa | 0 mm | 1.79 m/s, 243° | 0 W/m² | - |
| 1777516628 | 12.78° C | 86% | 1015.2 hPa | 0 mm | 1.79 m/s, 244° | 0 W/m² | - |
| 1777516328 | 12.22° C | 89% | 1015.2 hPa | 0 mm | 1.34 m/s, 243° | 0 W/m² | - |
| 1777516028 | 11.67° C | 89% | 1015.3 hPa | 0 mm | 0.89 m/s, 242° | 0 W/m² | - |
| 1777515727 | 11.67° C | 89% | 1015.3 hPa | 0 mm | 0.89 m/s, 244° | 0 W/m² | - |
| 1777515428 | 11.67° C | 90% | 1015.4 hPa | 0 mm | 0.45 m/s, 241° | 0 W/m² | - |
| 1777515127 | 11.11° C | 89% | 1015.3 hPa | 0 mm | 0.89 m/s, 249° | 0 W/m² | - |
| 1777514828 | 11.67° C | 88% | 1015.3 hPa | 0 mm | 0 m/s | 0 W/m² | - |
| 1777514528 | 11.67° C | 89% | 1015.2 hPa | 0 mm | 0 m/s | 0 W/m² | - |
| 1777514228 | 11.67° C | 88% | 1015.2 hPa | 0 mm | 0 m/s | 0 W/m² | - |
| 1777513927 | 11.67° C | 88% | 1015 hPa | 0 mm | 0 m/s | 0 W/m² | - |
| 1777513628 | 11.67° C | 88% | 1015.1 hPa | 0 mm | 0.45 m/s, 194° | 0 W/m² | - |
* Rain latest hour (hover to see other rain measurements)
** Current wind speed in m/s (hover to see current wind gust speed)